sensor_id;sensor_type;location;lat;lon;timestamp;P1;durP1;ratioP1;P2;durP2;ratioP2
44664;SDS011;30382;48.802;9.388;2022-09-03T00:00:19;1.70;;;1.60;;
44664;SDS011;30382;48.802;9.388;2022-09-03T00:03:19;3.83;;;2.07;;
44664;SDS011;30382;48.802;9.388;2022-09-03T00:06:11;2.33;;;2.13;;
44664;SDS011;30382;48.802;9.388;2022-09-03T00:09:59;2.27;;;1.77;;
44664;SDS011;30382;48.802;9.388;2022-09-03T00:12:27;3.03;;;2.77;;
44664;SDS011;30382;48.802;9.388;2022-09-03T00:15:14;2.40;;;2.30;;
44664;SDS011;30382;48.802;9.388;2022-09-03T00:18:02;2.33;;;1.90;;
44664;SDS011;30382;48.802;9.388;2022-09-03T00:20:53;1.80;;;1.70;;
44664;SDS011;30382;48.802;9.388;2022-09-03T00:23:39;2.40;;;1.53;;
44664;SDS011;30382;48.802;9.388;2022-09-03T00:26:26;2.50;;;2.30;;
44664;SDS011;30382;48.802;9.388;2022-09-03T00:29:15;2.20;;;2.07;;
44664;SDS011;30382;48.802;9.388;2022-09-03T00:32:09;2.70;;;2.50;;
44664;SDS011;30382;48.802;9.388;2022-09-03T00:34:57;2.57;;;2.40;;
44664;SDS011;30382;48.802;9.388;2022-09-03T00:37:43;2.47;;;2.27;;
44664;SDS011;30382;48.802;9.388;2022-09-03T00:57:53;2.10;;;1.83;;
44664;SDS011;30382;48.802;9.388;2022-09-03T01:00:42;4.80;;;1.87;;
44664;SDS011;30382;48.802;9.388;2022-09-03T01:03:49;4.70;;;2.37;;
44664;SDS011;30382;48.802;9.388;2022-09-03T01:09:47;2.23;;;1.83;;
44664;SDS011;30382;48.802;9.388;2022-09-03T01:30:07;2.53;;;2.20;;
44664;SDS011;30382;48.802;9.388;2022-09-03T01:32:57;3.40;;;1.97;;
44664;SDS011;30382;48.802;9.388;2022-09-03T01:36:04;2.63;;;2.43;;
44664;SDS011;30382;48.802;9.388;2022-09-03T01:38:52;2.37;;;2.17;;
44664;SDS011;30382;48.802;9.388;2022-09-03T01:41:52;4.90;;;2.20;;
44664;SDS011;30382;48.802;9.388;2022-09-03T01:45:02;1.57;;;1.47;;
44664;SDS011;30382;48.802;9.388;2022-09-03T01:47:54;3.03;;;1.50;;
44664;SDS011;30382;48.802;9.388;2022-09-03T01:50:44;1.30;;;1.20;;
44664;SDS011;30382;48.802;9.388;2022-09-03T01:59:33;1.77;;;1.53;;
44664;SDS011;30382;48.802;9.388;2022-09-03T02:02:22;2.00;;;1.57;;
44664;SDS011;30382;48.802;9.388;2022-09-03T02:05:41;1.83;;;1.73;;
44664;SDS011;30382;48.802;9.388;2022-09-03T02:08:19;2.97;;;2.73;;
44664;SDS011;30382;48.802;9.388;2022-09-03T02:11:04;2.27;;;1.47;;
44664;SDS011;30382;48.802;9.388;2022-09-03T02:13:50;2.20;;;2.00;;
44664;SDS011;30382;48.802;9.388;2022-09-03T02:16:35;1.93;;;1.43;;
44664;SDS011;30382;48.802;9.388;2022-09-03T02:19:20;1.63;;;1.50;;
44664;SDS011;30382;48.802;9.388;2022-09-03T02:22:04;1.60;;;1.50;;
44664;SDS011;30382;48.802;9.388;2022-09-03T02:24:49;2.80;;;2.20;;
44664;SDS011;30382;48.802;9.388;2022-09-03T02:27:33;2.07;;;1.40;;
44664;SDS011;30382;48.802;9.388;2022-09-03T02:30:18;2.70;;;1.70;;
44664;SDS011;30382;48.802;9.388;2022-09-03T02:33:02;1.60;;;1.60;;
44664;SDS011;30382;48.802;9.388;2022-09-03T02:35:46;1.70;;;1.60;;
44664;SDS011;30382;48.802;9.388;2022-09-03T02:38:31;3.10;;;1.90;;
44664;SDS011;30382;48.802;9.388;2022-09-03T02:41:16;1.93;;;1.83;;
44664;SDS011;30382;48.802;9.388;2022-09-03T02:46:58;2.60;;;1.50;;
44664;SDS011;30382;48.802;9.388;2022-09-03T02:49:43;1.67;;;1.57;;
44664;SDS011;30382;48.802;9.388;2022-09-03T02:52:28;1.60;;;1.50;;
44664;SDS011;30382;48.802;9.388;2022-09-03T02:55:12;2.30;;;2.10;;
44664;SDS011;30382;48.802;9.388;2022-09-03T02:57:57;1.70;;;1.60;;
44664;SDS011;30382;48.802;9.388;2022-09-03T03:00:43;2.00;;;1.90;;
44664;SDS011;30382;48.802;9.388;2022-09-03T03:03:27;3.20;;;1.87;;
44664;SDS011;30382;48.802;9.388;2022-09-03T03:06:12;1.77;;;1.67;;
44664;SDS011;30382;48.802;9.388;2022-09-03T03:08:57;1.77;;;1.67;;
44664;SDS011;30382;48.802;9.388;2022-09-03T03:11:41;1.93;;;1.83;;
44664;SDS011;30382;48.802;9.388;2022-09-03T03:14:26;2.30;;;2.03;;
44664;SDS011;30382;48.802;9.388;2022-09-03T03:17:10;1.60;;;1.53;;
44664;SDS011;30382;48.802;9.388;2022-09-03T03:19:54;2.10;;;1.90;;
44664;SDS011;30382;48.802;9.388;2022-09-03T03:22:39;2.57;;;2.37;;
44664;SDS011;30382;48.802;9.388;2022-09-03T03:25:23;3.70;;;1.73;;
44664;SDS011;30382;48.802;9.388;2022-09-03T03:28:07;2.03;;;1.93;;
44664;SDS011;30382;48.802;9.388;2022-09-03T03:30:52;3.13;;;2.03;;
44664;SDS011;30382;48.802;9.388;2022-09-03T03:33:36;2.53;;;1.77;;
44664;SDS011;30382;48.802;9.388;2022-09-03T03:36:21;2.90;;;2.23;;
44664;SDS011;30382;48.802;9.388;2022-09-03T03:39:06;2.97;;;1.97;;
44664;SDS011;30382;48.802;9.388;2022-09-03T03:41:50;5.63;;;2.83;;
44664;SDS011;30382;48.802;9.388;2022-09-03T03:44:35;2.20;;;2.10;;
44664;SDS011;30382;48.802;9.388;2022-09-03T03:47:19;2.23;;;2.03;;
44664;SDS011;30382;48.802;9.388;2022-09-03T03:50:04;1.87;;;1.77;;
44664;SDS011;30382;48.802;9.388;2022-09-03T03:52:48;2.27;;;2.07;;
44664;SDS011;30382;48.802;9.388;2022-09-03T03:55:33;2.27;;;2.17;;
44664;SDS011;30382;48.802;9.388;2022-09-03T03:58:17;6.23;;;2.80;;
44664;SDS011;30382;48.802;9.388;2022-09-03T04:01:05;2.27;;;1.93;;
44664;SDS011;30382;48.802;9.388;2022-09-03T04:03:53;2.30;;;2.10;;
44664;SDS011;30382;48.802;9.388;2022-09-03T04:06:38;2.53;;;2.33;;
44664;SDS011;30382;48.802;9.388;2022-09-03T04:09:22;3.17;;;2.40;;
44664;SDS011;30382;48.802;9.388;2022-09-03T04:12:07;2.40;;;2.20;;
44664;SDS011;30382;48.802;9.388;2022-09-03T04:14:51;3.10;;;2.03;;
44664;SDS011;30382;48.802;9.388;2022-09-03T04:17:36;1.90;;;1.80;;
44664;SDS011;30382;48.802;9.388;2022-09-03T04:20:20;2.47;;;2.30;;
44664;SDS011;30382;48.802;9.388;2022-09-03T04:23:04;2.10;;;2.00;;
44664;SDS011;30382;48.802;9.388;2022-09-03T04:25:52;2.77;;;2.07;;
44664;SDS011;30382;48.802;9.388;2022-09-03T04:28:36;2.30;;;2.10;;
44664;SDS011;30382;48.802;9.388;2022-09-03T04:31:21;2.30;;;2.10;;
44664;SDS011;30382;48.802;9.388;2022-09-03T04:34:05;2.20;;;2.10;;
44664;SDS011;30382;48.802;9.388;2022-09-03T04:36:49;2.87;;;2.67;;
44664;SDS011;30382;48.802;9.388;2022-09-03T04:39:33;4.80;;;2.80;;
44664;SDS011;30382;48.802;9.388;2022-09-03T04:42:18;3.13;;;2.27;;
44664;SDS011;30382;48.802;9.388;2022-09-03T04:45:02;2.20;;;2.10;;
44664;SDS011;30382;48.802;9.388;2022-09-03T04:47:59;2.70;;;2.50;;
44664;SDS011;30382;48.802;9.388;2022-09-03T04:50:44;4.10;;;1.97;;
44664;SDS011;30382;48.802;9.388;2022-09-03T04:53:28;2.50;;;2.30;;
44664;SDS011;30382;48.802;9.388;2022-09-03T04:56:17;2.83;;;2.53;;
44664;SDS011;30382;48.802;9.388;2022-09-03T04:59:05;2.63;;;2.20;;
44664;SDS011;30382;48.802;9.388;2022-09-03T05:01:51;5.40;;;2.77;;
44664;SDS011;30382;48.802;9.388;2022-09-03T05:04:35;3.67;;;3.10;;
44664;SDS011;30382;48.802;9.388;2022-09-03T05:07:19;2.80;;;2.40;;
44664;SDS011;30382;48.802;9.388;2022-09-03T05:10:05;4.23;;;2.57;;
44664;SDS011;30382;48.802;9.388;2022-09-03T05:15:43;2.53;;;2.33;;
44664;SDS011;30382;48.802;9.388;2022-09-03T05:18:28;3.20;;;2.60;;
44664;SDS011;30382;48.802;9.388;2022-09-03T05:21:14;2.03;;;1.93;;
44664;SDS011;30382;48.802;9.388;2022-09-03T05:23:58;3.00;;;2.33;;
44664;SDS011;30382;48.802;9.388;2022-09-03T05:26:42;2.70;;;1.93;;
44664;SDS011;30382;48.802;9.388;2022-09-03T05:29:27;2.73;;;2.50;;
44664;SDS011;30382;48.802;9.388;2022-09-03T05:32:11;3.43;;;2.80;;
44664;SDS011;30382;48.802;9.388;2022-09-03T05:34:56;2.50;;;2.27;;
44664;SDS011;30382;48.802;9.388;2022-09-03T05:37:41;2.67;;;2.47;;
44664;SDS011;30382;48.802;9.388;2022-09-03T05:40:25;2.83;;;2.63;;
44664;SDS011;30382;48.802;9.388;2022-09-03T05:43:09;2.43;;;2.20;;
44664;SDS011;30382;48.802;9.388;2022-09-03T05:45:57;2.90;;;2.67;;
44664;SDS011;30382;48.802;9.388;2022-09-03T05:48:43;2.47;;;2.27;;
44664;SDS011;30382;48.802;9.388;2022-09-03T05:51:31;2.40;;;2.30;;
44664;SDS011;30382;48.802;9.388;2022-09-03T05:54:15;3.50;;;3.20;;
44664;SDS011;30382;48.802;9.388;2022-09-03T05:57:00;3.27;;;2.60;;
44664;SDS011;30382;48.802;9.388;2022-09-03T05:59:45;3.27;;;2.97;;
44664;SDS011;30382;48.802;9.388;2022-09-03T06:02:30;2.77;;;2.47;;
44664;SDS011;30382;48.802;9.388;2022-09-03T06:05:15;2.30;;;2.10;;
44664;SDS011;30382;48.802;9.388;2022-09-03T06:08:00;2.70;;;2.50;;
44664;SDS011;30382;48.802;9.388;2022-09-03T06:10:44;2.70;;;2.50;;
44664;SDS011;30382;48.802;9.388;2022-09-03T06:13:29;3.33;;;2.97;;
44664;SDS011;30382;48.802;9.388;2022-09-03T06:16:14;3.87;;;3.00;;
44664;SDS011;30382;48.802;9.388;2022-09-03T06:19:00;3.20;;;3.00;;
44664;SDS011;30382;48.802;9.388;2022-09-03T06:21:45;3.50;;;3.20;;
44664;SDS011;30382;48.802;9.388;2022-09-03T06:24:30;2.67;;;2.47;;
44664;SDS011;30382;48.802;9.388;2022-09-03T06:27:15;3.60;;;2.60;;
44664;SDS011;30382;48.802;9.388;2022-09-03T06:30:01;8.77;;;3.57;;
44664;SDS011;30382;48.802;9.388;2022-09-03T06:32:45;2.57;;;2.47;;
44664;SDS011;30382;48.802;9.388;2022-09-03T06:35:30;3.43;;;2.50;;
44664;SDS011;30382;48.802;9.388;2022-09-03T06:38:14;3.67;;;2.57;;
44664;SDS011;30382;48.802;9.388;2022-09-03T06:41:00;3.03;;;2.77;;
44664;SDS011;30382;48.802;9.388;2022-09-03T06:43:45;5.27;;;3.17;;
44664;SDS011;30382;48.802;9.388;2022-09-03T06:46:32;2.57;;;2.37;;
44664;SDS011;30382;48.802;9.388;2022-09-03T06:49:21;2.40;;;2.20;;
44664;SDS011;30382;48.802;9.388;2022-09-03T06:52:09;3.10;;;2.80;;
44664;SDS011;30382;48.802;9.388;2022-09-03T06:54:53;3.13;;;2.93;;
44664;SDS011;30382;48.802;9.388;2022-09-03T06:57:39;3.40;;;3.10;;
44664;SDS011;30382;48.802;9.388;2022-09-03T07:00:23;3.10;;;2.90;;
44664;SDS011;30382;48.802;9.388;2022-09-03T07:03:09;2.17;;;2.07;;
44664;SDS011;30382;48.802;9.388;2022-09-03T07:05:53;2.47;;;2.27;;
44664;SDS011;30382;48.802;9.388;2022-09-03T07:08:43;2.73;;;2.53;;
44664;SDS011;30382;48.802;9.388;2022-09-03T07:11:28;2.87;;;2.67;;
44664;SDS011;30382;48.802;9.388;2022-09-03T07:14:14;2.73;;;2.47;;
44664;SDS011;30382;48.802;9.388;2022-09-03T07:16:58;3.37;;;2.33;;
44664;SDS011;30382;48.802;9.388;2022-09-03T07:19:42;3.80;;;3.00;;
44664;SDS011;30382;48.802;9.388;2022-09-03T07:22:27;3.17;;;2.80;;
44664;SDS011;30382;48.802;9.388;2022-09-03T07:25:12;3.17;;;2.63;;
44664;SDS011;30382;48.802;9.388;2022-09-03T07:27:56;4.40;;;2.60;;
44664;SDS011;30382;48.802;9.388;2022-09-03T07:30:42;2.73;;;2.63;;
44664;SDS011;30382;48.802;9.388;2022-09-03T07:33:27;2.80;;;2.60;;
44664;SDS011;30382;48.802;9.388;2022-09-03T07:36:13;3.03;;;2.80;;
44664;SDS011;30382;48.802;9.388;2022-09-03T07:38:58;3.10;;;2.73;;
44664;SDS011;30382;48.802;9.388;2022-09-03T07:41:42;2.80;;;2.20;;
44664;SDS011;30382;48.802;9.388;2022-09-03T07:44:29;2.33;;;2.23;;
44664;SDS011;30382;48.802;9.388;2022-09-03T07:47:14;3.07;;;2.77;;
44664;SDS011;30382;48.802;9.388;2022-09-03T07:49:58;4.20;;;2.93;;
44664;SDS011;30382;48.802;9.388;2022-09-03T07:52:43;2.90;;;2.70;;
44664;SDS011;30382;48.802;9.388;2022-09-03T07:55:28;2.93;;;2.73;;
44664;SDS011;30382;48.802;9.388;2022-09-03T07:58:12;2.83;;;2.63;;
44664;SDS011;30382;48.802;9.388;2022-09-03T08:00:57;3.10;;;2.83;;
44664;SDS011;30382;48.802;9.388;2022-09-03T08:03:42;4.63;;;2.50;;
44664;SDS011;30382;48.802;9.388;2022-09-03T08:06:28;5.23;;;3.03;;
44664;SDS011;30382;48.802;9.388;2022-09-03T08:09:12;3.23;;;3.03;;
44664;SDS011;30382;48.802;9.388;2022-09-03T08:11:57;2.43;;;2.33;;
44664;SDS011;30382;48.802;9.388;2022-09-03T08:14:42;2.90;;;2.70;;
44664;SDS011;30382;48.802;9.388;2022-09-03T08:17:26;2.70;;;2.53;;
44664;SDS011;30382;48.802;9.388;2022-09-03T08:20:11;2.93;;;2.63;;
44664;SDS011;30382;48.802;9.388;2022-09-03T08:23:01;2.57;;;2.37;;
44664;SDS011;30382;48.802;9.388;2022-09-03T08:25:46;2.40;;;2.20;;
44664;SDS011;30382;48.802;9.388;2022-09-03T08:28:32;3.27;;;2.97;;
44664;SDS011;30382;48.802;9.388;2022-09-03T08:31:18;3.53;;;3.23;;
44664;SDS011;30382;48.802;9.388;2022-09-03T08:34:04;2.43;;;2.30;;
44664;SDS011;30382;48.802;9.388;2022-09-03T08:36:49;2.63;;;2.43;;
44664;SDS011;30382;48.802;9.388;2022-09-03T08:39:35;2.90;;;2.73;;
44664;SDS011;30382;48.802;9.388;2022-09-03T08:42:22;2.77;;;2.57;;
44664;SDS011;30382;48.802;9.388;2022-09-03T08:45:09;3.00;;;2.80;;
44664;SDS011;30382;48.802;9.388;2022-09-03T08:48:04;3.73;;;3.10;;
44664;SDS011;30382;48.802;9.388;2022-09-03T08:50:49;4.17;;;3.10;;
44664;SDS011;30382;48.802;9.388;2022-09-03T08:53:46;3.60;;;3.30;;
44664;SDS011;30382;48.802;9.388;2022-09-03T08:56:31;3.80;;;3.10;;
44664;SDS011;30382;48.802;9.388;2022-09-03T08:59:19;3.10;;;2.93;;
44664;SDS011;30382;48.802;9.388;2022-09-03T09:05:30;3.13;;;2.93;;
44664;SDS011;30382;48.802;9.388;2022-09-03T09:11:07;3.20;;;2.97;;
44664;SDS011;30382;48.802;9.388;2022-09-03T09:22:35;3.33;;;2.80;;
44664;SDS011;30382;48.802;9.388;2022-09-03T09:25:22;3.40;;;2.80;;
44664;SDS011;30382;48.802;9.388;2022-09-03T09:28:12;3.43;;;3.13;;
44664;SDS011;30382;48.802;9.388;2022-09-03T09:31:00;2.77;;;2.57;;
44664;SDS011;30382;48.802;9.388;2022-09-03T09:33:44;3.53;;;2.93;;
44664;SDS011;30382;48.802;9.388;2022-09-03T09:36:29;2.57;;;2.47;;
44664;SDS011;30382;48.802;9.388;2022-09-03T09:39:13;3.77;;;2.73;;
44664;SDS011;30382;48.802;9.388;2022-09-03T09:42:04;3.03;;;2.40;;
44664;SDS011;30382;48.802;9.388;2022-09-03T09:44:52;3.40;;;3.13;;
44664;SDS011;30382;48.802;9.388;2022-09-03T09:47:37;3.87;;;2.90;;
44664;SDS011;30382;48.802;9.388;2022-09-03T09:50:22;4.47;;;4.07;;
44664;SDS011;30382;48.802;9.388;2022-09-03T09:53:07;3.77;;;2.93;;
44664;SDS011;30382;48.802;9.388;2022-09-03T09:55:57;3.67;;;3.43;;
44664;SDS011;30382;48.802;9.388;2022-09-03T09:58:41;3.57;;;3.27;;
44664;SDS011;30382;48.802;9.388;2022-09-03T10:01:26;3.37;;;3.00;;
44664;SDS011;30382;48.802;9.388;2022-09-03T10:04:20;3.00;;;2.80;;
44664;SDS011;30382;48.802;9.388;2022-09-03T10:10:09;3.17;;;2.97;;
44664;SDS011;30382;48.802;9.388;2022-09-03T10:12:59;5.60;;;3.17;;
44664;SDS011;30382;48.802;9.388;2022-09-03T10:15:49;5.80;;;3.07;;
44664;SDS011;30382;48.802;9.388;2022-09-03T10:27:22;3.33;;;3.00;;
44664;SDS011;30382;48.802;9.388;2022-09-03T10:30:07;3.97;;;3.67;;
44664;SDS011;30382;48.802;9.388;2022-09-03T10:33:11;3.43;;;3.13;;
44664;SDS011;30382;48.802;9.388;2022-09-03T10:36:04;3.33;;;3.10;;
44664;SDS011;30382;48.802;9.388;2022-09-03T10:38:52;3.30;;;3.10;;
44664;SDS011;30382;48.802;9.388;2022-09-03T10:44:34;3.60;;;3.33;;
44664;SDS011;30382;48.802;9.388;2022-09-03T10:50:26;5.33;;;3.90;;
44664;SDS011;30382;48.802;9.388;2022-09-03T10:56:16;4.57;;;3.57;;
44664;SDS011;30382;48.802;9.388;2022-09-03T10:59:37;4.03;;;3.40;;
44664;SDS011;30382;48.802;9.388;2022-09-03T11:02:28;3.90;;;3.60;;
44664;SDS011;30382;48.802;9.388;2022-09-03T11:05:36;3.53;;;3.27;;
44664;SDS011;30382;48.802;9.388;2022-09-03T11:08:26;3.43;;;3.23;;
44664;SDS011;30382;48.802;9.388;2022-09-03T11:11:19;3.37;;;3.13;;
44664;SDS011;30382;48.802;9.388;2022-09-03T11:14:06;3.80;;;3.37;;
44664;SDS011;30382;48.802;9.388;2022-09-03T11:16:53;3.43;;;3.23;;
44664;SDS011;30382;48.802;9.388;2022-09-03T11:19:44;3.60;;;3.30;;
44664;SDS011;30382;48.802;9.388;2022-09-03T11:22:31;3.60;;;3.33;;
44664;SDS011;30382;48.802;9.388;2022-09-03T11:25:16;5.43;;;3.53;;
44664;SDS011;30382;48.802;9.388;2022-09-03T11:31:08;3.77;;;3.37;;
44664;SDS011;30382;48.802;9.388;2022-09-03T11:34:06;3.70;;;3.50;;
44664;SDS011;30382;48.802;9.388;2022-09-03T11:36:51;2.87;;;2.77;;
44664;SDS011;30382;48.802;9.388;2022-09-03T11:39:35;3.23;;;3.03;;
44664;SDS011;30382;48.802;9.388;2022-09-03T11:45:59;3.17;;;2.90;;
44664;SDS011;30382;48.802;9.388;2022-09-03T11:48:16;3.63;;;3.30;;
44664;SDS011;30382;48.802;9.388;2022-09-03T11:51:01;4.67;;;4.30;;
44664;SDS011;30382;48.802;9.388;2022-09-03T11:56:39;5.43;;;3.40;;
44664;SDS011;30382;48.802;9.388;2022-09-03T11:59:24;4.13;;;3.67;;
44664;SDS011;30382;48.802;9.388;2022-09-03T12:02:25;5.20;;;3.40;;
44664;SDS011;30382;48.802;9.388;2022-09-03T12:08:11;3.20;;;2.87;;
44664;SDS011;30382;48.802;9.388;2022-09-03T12:13:49;4.30;;;3.90;;
44664;SDS011;30382;48.802;9.388;2022-09-03T12:16:39;4.50;;;3.70;;
44664;SDS011;30382;48.802;9.388;2022-09-03T12:22:26;4.43;;;4.03;;
44664;SDS011;30382;48.802;9.388;2022-09-03T12:25:14;4.57;;;4.17;;
44664;SDS011;30382;48.802;9.388;2022-09-03T12:28:00;4.33;;;3.93;;
44664;SDS011;30382;48.802;9.388;2022-09-03T12:30:47;4.10;;;3.80;;
44664;SDS011;30382;48.802;9.388;2022-09-03T12:33:32;4.53;;;4.10;;
44664;SDS011;30382;48.802;9.388;2022-09-03T12:36:17;4.20;;;3.77;;
44664;SDS011;30382;48.802;9.388;2022-09-03T12:39:08;4.17;;;3.87;;
44664;SDS011;30382;48.802;9.388;2022-09-03T12:42:00;4.37;;;4.03;;
44664;SDS011;30382;48.802;9.388;2022-09-03T12:44:44;3.20;;;2.90;;
44664;SDS011;30382;48.802;9.388;2022-09-03T12:47:29;2.57;;;2.10;;
44664;SDS011;30382;48.802;9.388;2022-09-03T12:50:15;2.50;;;2.20;;
44664;SDS011;30382;48.802;9.388;2022-09-03T12:53:00;2.10;;;1.17;;
44664;SDS011;30382;48.802;9.388;2022-09-03T12:55:46;1.60;;;1.50;;
44664;SDS011;30382;48.802;9.388;2022-09-03T13:01:20;3.13;;;0.90;;
44664;SDS011;30382;48.802;9.388;2022-09-03T13:04:09;2.97;;;1.73;;
44664;SDS011;30382;48.802;9.388;2022-09-03T13:07:05;1.43;;;1.33;;
44664;SDS011;30382;48.802;9.388;2022-09-03T13:09:50;3.60;;;1.63;;
44664;SDS011;30382;48.802;9.388;2022-09-03T13:12:45;2.57;;;1.97;;
44664;SDS011;30382;48.802;9.388;2022-09-03T13:15:32;1.50;;;1.40;;
44664;SDS011;30382;48.802;9.388;2022-09-03T13:21:04;1.87;;;1.27;;
44664;SDS011;30382;48.802;9.388;2022-09-03T13:23:56;4.30;;;1.50;;
44664;SDS011;30382;48.802;9.388;2022-09-03T13:27:03;1.80;;;1.70;;
44664;SDS011;30382;48.802;9.388;2022-09-03T13:32:45;3.17;;;1.87;;
44664;SDS011;30382;48.802;9.388;2022-09-03T13:35:38;2.00;;;1.80;;
44664;SDS011;30382;48.802;9.388;2022-09-03T13:38:34;2.03;;;1.77;;
44664;SDS011;30382;48.802;9.388;2022-09-03T13:41:31;5.37;;;2.10;;
44664;SDS011;30382;48.802;9.388;2022-09-03T13:44:21;1.87;;;1.67;;
44664;SDS011;30382;48.802;9.388;2022-09-03T13:49:53;3.90;;;1.30;;
44664;SDS011;30382;48.802;9.388;2022-09-03T13:53:02;2.47;;;1.83;;
44664;SDS011;30382;48.802;9.388;2022-09-03T13:55:52;2.10;;;1.67;;
44664;SDS011;30382;48.802;9.388;2022-09-03T13:58:42;1.67;;;1.43;;
44664;SDS011;30382;48.802;9.388;2022-09-03T14:04:54;4.20;;;1.80;;
44664;SDS011;30382;48.802;9.388;2022-09-03T14:13:46;1.00;;;0.97;;
44664;SDS011;30382;48.802;9.388;2022-09-03T14:16:48;2.17;;;2.07;;
44664;SDS011;30382;48.802;9.388;2022-09-03T14:19:45;2.53;;;2.33;;
44664;SDS011;30382;48.802;9.388;2022-09-03T14:25:34;3.80;;;1.30;;
44664;SDS011;30382;48.802;9.388;2022-09-03T14:28:35;2.93;;;1.83;;
44664;SDS011;30382;48.802;9.388;2022-09-03T14:48:57;0.73;;;0.73;;
44664;SDS011;30382;48.802;9.388;2022-09-03T14:57:30;1.27;;;1.17;;
44664;SDS011;30382;48.802;9.388;2022-09-03T15:00:17;0.97;;;0.90;;
44664;SDS011;30382;48.802;9.388;2022-09-03T15:11:56;1.50;;;1.35;;
44664;SDS011;30382;48.802;9.388;2022-09-03T15:14:49;3.20;;;1.60;;
44664;SDS011;30382;48.802;9.388;2022-09-03T15:17:53;1.40;;;0.93;;
44664;SDS011;30382;48.802;9.388;2022-09-03T15:20:47;2.00;;;1.50;;
44664;SDS011;30382;48.802;9.388;2022-09-03T15:26:38;1.90;;;1.30;;
44664;SDS011;30382;48.802;9.388;2022-09-03T15:29:34;2.00;;;1.17;;
44664;SDS011;30382;48.802;9.388;2022-09-03T15:38:32;1.27;;;1.10;;
44664;SDS011;30382;48.802;9.388;2022-09-03T15:44:24;1.10;;;1.00;;
44664;SDS011;30382;48.802;9.388;2022-09-03T15:47:11;3.10;;;1.40;;
44664;SDS011;30382;48.802;9.388;2022-09-03T15:50:00;2.40;;;1.17;;
44664;SDS011;30382;48.802;9.388;2022-09-03T15:52:48;1.97;;;1.47;;
44664;SDS011;30382;48.802;9.388;2022-09-03T15:55:37;2.27;;;1.40;;
44664;SDS011;30382;48.802;9.388;2022-09-03T16:01:25;2.13;;;1.20;;
44664;SDS011;30382;48.802;9.388;2022-09-03T16:07:08;1.40;;;1.30;;
44664;SDS011;30382;48.802;9.388;2022-09-03T16:13:02;0.97;;;0.90;;
44664;SDS011;30382;48.802;9.388;2022-09-03T16:15:50;2.70;;;1.20;;
44664;SDS011;30382;48.802;9.388;2022-09-03T16:27:41;7.53;;;1.30;;
44664;SDS011;30382;48.802;9.388;2022-09-03T16:36:49;2.20;;;0.97;;
44664;SDS011;30382;48.802;9.388;2022-09-03T16:43:05;3.63;;;1.73;;
44664;SDS011;30382;48.802;9.388;2022-09-03T16:49:01;1.70;;;1.60;;
44664;SDS011;30382;48.802;9.388;2022-09-03T16:51:55;1.80;;;1.10;;
44664;SDS011;30382;48.802;9.388;2022-09-03T16:54:59;2.20;;;2.00;;
44664;SDS011;30382;48.802;9.388;2022-09-03T17:03:39;3.90;;;1.83;;
44664;SDS011;30382;48.802;9.388;2022-09-03T17:06:38;6.13;;;1.77;;
44664;SDS011;30382;48.802;9.388;2022-09-03T17:09:27;2.17;;;2.00;;
44664;SDS011;30382;48.802;9.388;2022-09-03T17:18:10;2.27;;;2.07;;
44664;SDS011;30382;48.802;9.388;2022-09-03T17:26:46;3.20;;;2.00;;
44664;SDS011;30382;48.802;9.388;2022-09-03T17:35:33;4.80;;;2.70;;
44664;SDS011;30382;48.802;9.388;2022-09-03T17:41:14;1.90;;;1.80;;
44664;SDS011;30382;48.802;9.388;2022-09-03T17:44:09;2.10;;;1.63;;
44664;SDS011;30382;48.802;9.388;2022-09-03T17:49:49;2.07;;;1.97;;
44664;SDS011;30382;48.802;9.388;2022-09-03T17:52:40;2.80;;;2.60;;
44664;SDS011;30382;48.802;9.388;2022-09-03T18:06:55;2.13;;;1.93;;
44664;SDS011;30382;48.802;9.388;2022-09-03T18:12:54;6.83;;;3.27;;
44664;SDS011;30382;48.802;9.388;2022-09-03T18:18:44;3.07;;;2.47;;
44664;SDS011;30382;48.802;9.388;2022-09-03T18:21:33;1.90;;;1.80;;
44664;SDS011;30382;48.802;9.388;2022-09-03T18:24:42;1.83;;;1.57;;
44664;SDS011;30382;48.802;9.388;2022-09-03T18:27:48;5.20;;;1.77;;
44664;SDS011;30382;48.802;9.388;2022-09-03T18:30:52;1.60;;;1.43;;
44664;SDS011;30382;48.802;9.388;2022-09-03T18:33:55;2.90;;;1.60;;
44664;SDS011;30382;48.802;9.388;2022-09-03T18:36:59;3.50;;;2.13;;
44664;SDS011;30382;48.802;9.388;2022-09-03T18:40:02;2.50;;;1.93;;
44664;SDS011;30382;48.802;9.388;2022-09-03T18:52:53;3.00;;;2.27;;
44664;SDS011;30382;48.802;9.388;2022-09-03T18:56:02;2.87;;;2.67;;
44664;SDS011;30382;48.802;9.388;2022-09-03T19:02:39;2.40;;;2.10;;
44664;SDS011;30382;48.802;9.388;2022-09-03T19:15:31;3.23;;;2.67;;
44664;SDS011;30382;48.802;9.388;2022-09-03T19:18:59;4.43;;;2.20;;
44664;SDS011;30382;48.802;9.388;2022-09-03T19:22:09;3.30;;;2.30;;
44664;SDS011;30382;48.802;9.388;2022-09-03T19:25:13;2.90;;;2.60;;
44664;SDS011;30382;48.802;9.388;2022-09-03T19:28:20;5.03;;;2.90;;
44664;SDS011;30382;48.802;9.388;2022-09-03T19:31:36;2.67;;;1.90;;
44664;SDS011;30382;48.802;9.388;2022-09-03T19:34:59;2.63;;;1.87;;
44664;SDS011;30382;48.802;9.388;2022-09-03T19:41:14;2.53;;;2.33;;
44664;SDS011;30382;48.802;9.388;2022-09-03T19:44:29;2.50;;;2.30;;
44664;SDS011;30382;48.802;9.388;2022-09-03T19:47:46;2.20;;;1.93;;
44664;SDS011;30382;48.802;9.388;2022-09-03T19:50:55;2.03;;;1.93;;
44664;SDS011;30382;48.802;9.388;2022-09-03T19:54:00;2.33;;;2.13;;
44664;SDS011;30382;48.802;9.388;2022-09-03T19:57:04;3.60;;;3.03;;
44664;SDS011;30382;48.802;9.388;2022-09-03T20:00:08;1.90;;;1.80;;
44664;SDS011;30382;48.802;9.388;2022-09-03T20:03:10;3.37;;;1.97;;
44664;SDS011;30382;48.802;9.388;2022-09-03T20:06:15;1.60;;;1.50;;
44664;SDS011;30382;48.802;9.388;2022-09-03T20:09:19;2.23;;;2.00;;
44664;SDS011;30382;48.802;9.388;2022-09-03T20:12:24;2.03;;;1.83;;
44664;SDS011;30382;48.802;9.388;2022-09-03T20:15:10;2.13;;;2.00;;
44664;SDS011;30382;48.802;9.388;2022-09-03T20:18:04;1.90;;;1.70;;
44664;SDS011;30382;48.802;9.388;2022-09-03T20:21:09;2.27;;;1.90;;
44664;SDS011;30382;48.802;9.388;2022-09-03T20:24:05;2.33;;;2.13;;
44664;SDS011;30382;48.802;9.388;2022-09-03T20:30:00;2.50;;;2.30;;
44664;SDS011;30382;48.802;9.388;2022-09-03T20:50:18;3.07;;;2.77;;
44664;SDS011;30382;48.802;9.388;2022-09-03T20:56:02;1.70;;;1.60;;
44664;SDS011;30382;48.802;9.388;2022-09-03T20:58:57;1.97;;;1.77;;
44664;SDS011;30382;48.802;9.388;2022-09-03T21:01:47;1.77;;;1.67;;
44664;SDS011;30382;48.802;9.388;2022-09-03T21:22:39;4.13;;;2.70;;
44664;SDS011;30382;48.802;9.388;2022-09-03T21:25:29;1.83;;;1.73;;
44664;SDS011;30382;48.802;9.388;2022-09-03T21:28:16;2.30;;;2.00;;
44664;SDS011;30382;48.802;9.388;2022-09-03T21:31:06;5.00;;;2.50;;
44664;SDS011;30382;48.802;9.388;2022-09-03T21:33:54;2.20;;;1.73;;
44664;SDS011;30382;48.802;9.388;2022-09-03T21:36:41;3.57;;;2.03;;
44664;SDS011;30382;48.802;9.388;2022-09-03T21:39:30;3.97;;;2.00;;
44664;SDS011;30382;48.802;9.388;2022-09-03T21:42:17;1.53;;;1.43;;
44664;SDS011;30382;48.802;9.388;2022-09-03T21:47:58;4.00;;;1.73;;
44664;SDS011;30382;48.802;9.388;2022-09-03T21:50:56;2.13;;;1.80;;
44664;SDS011;30382;48.802;9.388;2022-09-03T21:53:49;1.53;;;1.43;;
44664;SDS011;30382;48.802;9.388;2022-09-03T22:02:35;2.63;;;1.90;;
44664;SDS011;30382;48.802;9.388;2022-09-03T22:05:19;2.53;;;2.20;;
44664;SDS011;30382;48.802;9.388;2022-09-03T22:13:38;2.57;;;2.37;;
44664;SDS011;30382;48.802;9.388;2022-09-03T22:16:31;2.63;;;2.43;;
44664;SDS011;30382;48.802;9.388;2022-09-03T22:19:20;2.57;;;2.20;;
44664;SDS011;30382;48.802;9.388;2022-09-03T22:22:07;3.50;;;2.20;;
44664;SDS011;30382;48.802;9.388;2022-09-03T22:28:01;6.13;;;4.30;;
44664;SDS011;30382;48.802;9.388;2022-09-03T22:31:00;4.97;;;3.97;;
44664;SDS011;30382;48.802;9.388;2022-09-03T22:36:49;3.07;;;2.60;;
44664;SDS011;30382;48.802;9.388;2022-09-03T22:39:37;2.50;;;2.30;;